sensor_id;sensor_type;location;lat;lon;timestamp;pressure;altitude;pressure_sealevel;temperature;humidity
52735;BME280;38631;47.572;10.704;2022-12-31T00:01:14;92728.81;;;10.12;78.50
52735;BME280;38631;47.572;10.704;2022-12-31T00:03:40;92724.69;;;9.92;79.03
52735;BME280;38631;47.572;10.704;2022-12-31T00:06:22;92719.50;;;10.01;78.75
52735;BME280;38631;47.572;10.704;2022-12-31T00:08:48;92733.34;;;9.84;80.21
52735;BME280;38631;47.572;10.704;2022-12-31T00:11:15;92747.38;;;9.85;80.26
52735;BME280;38631;47.572;10.704;2022-12-31T00:13:41;92741.22;;;9.76;80.80
52735;BME280;38631;47.572;10.704;2022-12-31T00:16:10;92742.69;;;9.82;80.48
52735;BME280;38631;47.572;10.704;2022-12-31T00:18:35;92750.25;;;10.02;79.06
52735;BME280;38631;47.572;10.704;2022-12-31T00:21:06;92747.88;;;9.87;80.00
52735;BME280;38631;47.572;10.704;2022-12-31T00:23:31;92749.84;;;9.67;81.19
52735;BME280;38631;47.572;10.704;2022-12-31T00:26:05;92760.44;;;9.67;81.35
52735;BME280;38631;47.572;10.704;2022-12-31T00:28:32;92770.66;;;9.74;81.44
52735;BME280;38631;47.572;10.704;2022-12-31T00:31:04;92762.63;;;9.79;81.26
52735;BME280;38631;47.572;10.704;2022-12-31T00:33:29;92775.69;;;9.89;81.39
52735;BME280;38631;47.572;10.704;2022-12-31T00:36:03;92765.78;;;9.81;81.99
52735;BME280;38631;47.572;10.704;2022-12-31T00:38:28;92767.06;;;9.84;82.42
52735;BME280;38631;47.572;10.704;2022-12-31T00:40:54;92782.84;;;9.75;83.30
52735;BME280;38631;47.572;10.704;2022-12-31T00:43:19;92764.00;;;9.77;83.07
52735;BME280;38631;47.572;10.704;2022-12-31T00:45:44;92768.59;;;9.85;83.58
52735;BME280;38631;47.572;10.704;2022-12-31T00:48:10;92782.56;;;9.90;83.69
52735;BME280;38631;47.572;10.704;2022-12-31T00:50:35;92766.34;;;9.92;83.65
52735;BME280;38631;47.572;10.704;2022-12-31T00:53:00;92758.09;;;9.80;84.14
52735;BME280;38631;47.572;10.704;2022-12-31T00:55:26;92766.94;;;9.89;83.47
52735;BME280;38631;47.572;10.704;2022-12-31T00:57:51;92774.13;;;10.16;81.99
52735;BME280;38631;47.572;10.704;2022-12-31T01:00:16;92758.50;;;9.87;83.56
52735;BME280;38631;47.572;10.704;2022-12-31T01:02:42;92770.56;;;9.79;84.00
52735;BME280;38631;47.572;10.704;2022-12-31T01:05:07;92756.03;;;9.90;83.37
52735;BME280;38631;47.572;10.704;2022-12-31T01:07:32;92759.38;;;9.96;82.64
52735;BME280;38631;47.572;10.704;2022-12-31T01:09:58;92771.97;;;10.04;81.94
52735;BME280;38631;47.572;10.704;2022-12-31T01:12:23;92772.44;;;10.20;80.72
52735;BME280;38631;47.572;10.704;2022-12-31T01:14:49;92761.44;;;10.13;81.39
52735;BME280;38631;47.572;10.704;2022-12-31T01:17:14;92764.09;;;9.99;81.48
52735;BME280;38631;47.572;10.704;2022-12-31T01:19:41;92778.38;;;10.31;79.97
52735;BME280;38631;47.572;10.704;2022-12-31T01:22:07;92778.16;;;10.41;79.21
52735;BME280;38631;47.572;10.704;2022-12-31T01:24:32;92765.16;;;10.53;77.92
52735;BME280;38631;47.572;10.704;2022-12-31T01:26:57;92780.50;;;10.56;77.99
52735;BME280;38631;47.572;10.704;2022-12-31T01:29:23;92776.84;;;10.52;78.24
52735;BME280;38631;47.572;10.704;2022-12-31T01:31:48;92787.75;;;10.65;76.93
52735;BME280;38631;47.572;10.704;2022-12-31T01:34:14;92794.84;;;10.55;77.35
52735;BME280;38631;47.572;10.704;2022-12-31T01:36:39;92800.44;;;10.68;76.87
52735;BME280;38631;47.572;10.704;2022-12-31T01:39:06;92806.66;;;10.49;78.29
52735;BME280;38631;47.572;10.704;2022-12-31T01:41:36;92799.09;;;10.56;77.84
52735;BME280;38631;47.572;10.704;2022-12-31T01:44:44;92786.22;;;10.36;78.18
52735;BME280;38631;47.572;10.704;2022-12-31T01:46:50;92810.00;;;10.55;77.69
52735;BME280;38631;47.572;10.704;2022-12-31T01:52:10;92800.88;;;10.33;79.01
52735;BME280;38631;47.572;10.704;2022-12-31T01:54:41;92804.78;;;10.64;76.97
52735;BME280;38631;47.572;10.704;2022-12-31T01:57:08;92810.88;;;11.23;74.02
52735;BME280;38631;47.572;10.704;2022-12-31T01:59:35;92817.91;;;10.82;75.86
52735;BME280;38631;47.572;10.704;2022-12-31T02:02:00;92797.19;;;10.93;74.96
52735;BME280;38631;47.572;10.704;2022-12-31T02:04:26;92816.97;;;10.65;76.82
52735;BME280;38631;47.572;10.704;2022-12-31T02:06:59;92815.09;;;10.65;76.93
52735;BME280;38631;47.572;10.704;2022-12-31T02:09:25;92812.91;;;10.67;76.77
52735;BME280;38631;47.572;10.704;2022-12-31T02:11:51;92802.41;;;10.62;76.83
52735;BME280;38631;47.572;10.704;2022-12-31T02:14:22;92820.81;;;10.58;77.23
52735;BME280;38631;47.572;10.704;2022-12-31T02:25:51;92808.22;;;10.64;76.90
52735;BME280;38631;47.572;10.704;2022-12-31T02:29:06;92793.84;;;11.01;74.82
52735;BME280;38631;47.572;10.704;2022-12-31T02:31:45;92805.34;;;10.60;76.68
52735;BME280;38631;47.572;10.704;2022-12-31T02:34:32;92818.75;;;10.42;77.93
52735;BME280;38631;47.572;10.704;2022-12-31T02:37:03;92815.50;;;10.95;75.22
52735;BME280;38631;47.572;10.704;2022-12-31T02:39:31;92815.75;;;10.85;75.86
52735;BME280;38631;47.572;10.704;2022-12-31T02:41:58;92815.25;;;10.82;75.36
52735;BME280;38631;47.572;10.704;2022-12-31T02:44:31;92810.75;;;11.06;73.84
52735;BME280;38631;47.572;10.704;2022-12-31T02:47:16;92812.63;;;11.05;74.02
52735;BME280;38631;47.572;10.704;2022-12-31T02:55:42;92804.44;;;10.79;75.40
52735;BME280;38631;47.572;10.704;2022-12-31T02:58:32;92813.09;;;10.85;74.58
52735;BME280;38631;47.572;10.704;2022-12-31T03:01:26;92817.78;;;11.01;74.29
52735;BME280;38631;47.572;10.704;2022-12-31T03:04:13;92822.00;;;11.25;72.28
52735;BME280;38631;47.572;10.704;2022-12-31T03:07:00;92811.25;;;11.08;73.61
52735;BME280;38631;47.572;10.704;2022-12-31T03:09:26;92807.97;;;11.11;72.90
52735;BME280;38631;47.572;10.704;2022-12-31T03:11:51;92811.69;;;11.01;73.37
52735;BME280;38631;47.572;10.704;2022-12-31T03:14:35;92805.16;;;11.07;73.14
52735;BME280;38631;47.572;10.704;2022-12-31T03:17:01;92798.47;;;10.96;73.35
52735;BME280;38631;47.572;10.704;2022-12-31T03:19:28;92794.44;;;11.21;71.97
52735;BME280;38631;47.572;10.704;2022-12-31T03:22:12;92793.88;;;10.88;73.50
52735;BME280;38631;47.572;10.704;2022-12-31T03:25:13;92799.84;;;10.93;73.47
52735;BME280;38631;47.572;10.704;2022-12-31T03:28:04;92803.34;;;10.80;74.07
52735;BME280;38631;47.572;10.704;2022-12-31T03:30:31;92796.13;;;10.94;72.81
52735;BME280;38631;47.572;10.704;2022-12-31T03:32:57;92794.69;;;11.11;72.76
52735;BME280;38631;47.572;10.704;2022-12-31T03:35:24;92775.66;;;11.71;69.34
52735;BME280;38631;47.572;10.704;2022-12-31T03:37:50;92783.75;;;11.35;70.93
52735;BME280;38631;47.572;10.704;2022-12-31T03:40:17;92784.91;;;11.42;70.03
52735;BME280;38631;47.572;10.704;2022-12-31T03:42:43;92802.09;;;11.67;68.67
52735;BME280;38631;47.572;10.704;2022-12-31T03:45:09;92800.94;;;11.29;70.74
52735;BME280;38631;47.572;10.704;2022-12-31T03:47:35;92792.28;;;11.23;70.96
52735;BME280;38631;47.572;10.704;2022-12-31T03:50:01;92789.06;;;11.57;68.98
52735;BME280;38631;47.572;10.704;2022-12-31T03:52:26;92796.84;;;11.76;68.24
52735;BME280;38631;47.572;10.704;2022-12-31T03:54:52;92799.53;;;11.54;69.29
52735;BME280;38631;47.572;10.704;2022-12-31T03:57:17;92792.16;;;11.51;69.51
52735;BME280;38631;47.572;10.704;2022-12-31T03:59:42;92797.00;;;11.49;69.87
52735;BME280;38631;47.572;10.704;2022-12-31T04:02:08;92809.81;;;11.24;71.68
52735;BME280;38631;47.572;10.704;2022-12-31T04:04:33;92786.59;;;11.16;71.77
52735;BME280;38631;47.572;10.704;2022-12-31T04:06:58;92798.03;;;11.16;71.91
52735;BME280;38631;47.572;10.704;2022-12-31T04:09:24;92808.53;;;11.21;71.80
52735;BME280;38631;47.572;10.704;2022-12-31T04:11:49;92812.03;;;11.31;70.75
52735;BME280;38631;47.572;10.704;2022-12-31T04:14:15;92825.03;;;11.10;72.38
52735;BME280;38631;47.572;10.704;2022-12-31T04:16:41;92825.41;;;11.17;71.91
52735;BME280;38631;47.572;10.704;2022-12-31T04:19:07;92837.44;;;11.00;73.46
52735;BME280;38631;47.572;10.704;2022-12-31T04:21:32;92831.53;;;11.03;73.14
52735;BME280;38631;47.572;10.704;2022-12-31T04:23:58;92831.50;;;11.17;72.25
52735;BME280;38631;47.572;10.704;2022-12-31T04:26:23;92841.47;;;10.98;73.23
52735;BME280;38631;47.572;10.704;2022-12-31T04:28:48;92845.75;;;10.85;74.74
52735;BME280;38631;47.572;10.704;2022-12-31T04:31:14;92842.84;;;10.59;76.30
52735;BME280;38631;47.572;10.704;2022-12-31T04:33:39;92856.69;;;10.84;74.60
52735;BME280;38631;47.572;10.704;2022-12-31T04:36:06;92850.50;;;11.11;73.21
52735;BME280;38631;47.572;10.704;2022-12-31T04:38:33;92847.50;;;11.03;74.52
52735;BME280;38631;47.572;10.704;2022-12-31T04:40:58;92851.72;;;10.91;75.25
52735;BME280;38631;47.572;10.704;2022-12-31T04:43:45;92835.22;;;10.94;75.39
52735;BME280;38631;47.572;10.704;2022-12-31T04:46:11;92848.22;;;10.81;75.56
52735;BME280;38631;47.572;10.704;2022-12-31T04:48:37;92836.94;;;10.62;77.35
52735;BME280;38631;47.572;10.704;2022-12-31T04:51:03;92830.16;;;10.56;77.61
52735;BME280;38631;47.572;10.704;2022-12-31T04:53:29;92844.72;;;10.45;78.66
52735;BME280;38631;47.572;10.704;2022-12-31T04:55:54;92843.13;;;10.30;80.01
52735;BME280;38631;47.572;10.704;2022-12-31T04:58:20;92850.28;;;10.15;80.65
52735;BME280;38631;47.572;10.704;2022-12-31T05:00:45;92853.13;;;10.19;79.58
52735;BME280;38631;47.572;10.704;2022-12-31T05:03:14;92867.97;;;10.20;79.57
52735;BME280;38631;47.572;10.704;2022-12-31T05:05:39;92870.53;;;10.25;79.49
52735;BME280;38631;47.572;10.704;2022-12-31T05:08:07;92866.75;;;10.31;78.82
52735;BME280;38631;47.572;10.704;2022-12-31T05:10:32;92870.59;;;10.39;78.04
52735;BME280;38631;47.572;10.704;2022-12-31T05:12:57;92872.13;;;10.68;76.51
52735;BME280;38631;47.572;10.704;2022-12-31T05:15:23;92876.16;;;10.65;76.30
52735;BME280;38631;47.572;10.704;2022-12-31T05:17:48;92899.31;;;10.51;77.40
52735;BME280;38631;47.572;10.704;2022-12-31T05:20:13;92884.34;;;10.55;77.02
52735;BME280;38631;47.572;10.704;2022-12-31T05:22:41;92881.78;;;10.36;78.83
52735;BME280;38631;47.572;10.704;2022-12-31T05:25:06;92888.47;;;10.33;78.21
52735;BME280;38631;47.572;10.704;2022-12-31T05:27:32;92871.16;;;10.50;76.47
52735;BME280;38631;47.572;10.704;2022-12-31T05:29:58;92872.31;;;10.85;74.13
52735;BME280;38631;47.572;10.704;2022-12-31T05:32:24;92877.84;;;10.75;74.36
52735;BME280;38631;47.572;10.704;2022-12-31T05:34:49;92878.94;;;11.24;72.00
52735;BME280;38631;47.572;10.704;2022-12-31T05:37:14;92883.56;;;11.18;72.65
52735;BME280;38631;47.572;10.704;2022-12-31T05:39:40;92871.50;;;11.35;71.29
52735;BME280;38631;47.572;10.704;2022-12-31T05:42:05;92890.41;;;11.33;71.89
52735;BME280;38631;47.572;10.704;2022-12-31T05:44:31;92892.75;;;11.49;71.42
52735;BME280;38631;47.572;10.704;2022-12-31T05:46:56;92889.16;;;11.53;70.67
52735;BME280;38631;47.572;10.704;2022-12-31T05:49:21;92883.06;;;11.75;69.38
52735;BME280;38631;47.572;10.704;2022-12-31T05:51:47;92888.63;;;11.65;69.31
52735;BME280;38631;47.572;10.704;2022-12-31T05:54:12;92880.72;;;11.74;69.38
52735;BME280;38631;47.572;10.704;2022-12-31T05:56:37;92881.16;;;12.21;66.58
52735;BME280;38631;47.572;10.704;2022-12-31T05:59:04;92879.34;;;12.39;65.88
52735;BME280;38631;47.572;10.704;2022-12-31T06:01:29;92895.25;;;11.90;67.85
52735;BME280;38631;47.572;10.704;2022-12-31T06:03:54;92884.97;;;11.61;68.67
52735;BME280;38631;47.572;10.704;2022-12-31T06:06:20;92890.25;;;11.52;69.26
52735;BME280;38631;47.572;10.704;2022-12-31T06:08:51;92887.78;;;12.01;66.99
52735;BME280;38631;47.572;10.704;2022-12-31T06:11:17;92894.69;;;11.79;67.63
52735;BME280;38631;47.572;10.704;2022-12-31T06:13:42;92897.47;;;11.74;68.09
52735;BME280;38631;47.572;10.704;2022-12-31T06:16:09;92891.34;;;11.96;67.51
52735;BME280;38631;47.572;10.704;2022-12-31T06:18:34;92901.44;;;11.85;67.82
52735;BME280;38631;47.572;10.704;2022-12-31T06:21:00;92904.84;;;11.77;67.82
52735;BME280;38631;47.572;10.704;2022-12-31T06:23:25;92900.13;;;11.74;68.23
52735;BME280;38631;47.572;10.704;2022-12-31T06:25:50;92894.06;;;12.05;66.81
52735;BME280;38631;47.572;10.704;2022-12-31T06:28:16;92878.22;;;12.00;67.02
52735;BME280;38631;47.572;10.704;2022-12-31T06:30:41;92901.06;;;11.92;67.21
52735;BME280;38631;47.572;10.704;2022-12-31T06:33:07;92913.91;;;11.76;68.01
52735;BME280;38631;47.572;10.704;2022-12-31T06:35:32;92916.31;;;11.64;68.16
52735;BME280;38631;47.572;10.704;2022-12-31T06:37:57;92910.78;;;11.97;66.76
52735;BME280;38631;47.572;10.704;2022-12-31T06:40:23;92918.31;;;12.57;64.27
52735;BME280;38631;47.572;10.704;2022-12-31T06:42:48;92931.56;;;12.17;66.45
52735;BME280;38631;47.572;10.704;2022-12-31T06:45:13;92927.34;;;12.47;65.33
52735;BME280;38631;47.572;10.704;2022-12-31T06:47:39;92933.03;;;12.01;66.80
52735;BME280;38631;47.572;10.704;2022-12-31T06:50:05;92927.78;;;11.87;67.70
52735;BME280;38631;47.572;10.704;2022-12-31T06:52:31;92926.16;;;11.86;67.76
52735;BME280;38631;47.572;10.704;2022-12-31T06:54:56;92923.75;;;11.76;69.17
52735;BME280;38631;47.572;10.704;2022-12-31T06:57:22;92920.38;;;11.84;68.64
52735;BME280;38631;47.572;10.704;2022-12-31T06:59:48;92927.91;;;11.68;69.35
52735;BME280;38631;47.572;10.704;2022-12-31T07:02:27;92931.59;;;11.58;69.69
52735;BME280;38631;47.572;10.704;2022-12-31T07:07:54;92957.94;;;11.82;69.52
52735;BME280;38631;47.572;10.704;2022-12-31T07:10:39;92958.94;;;11.73;69.99
52735;BME280;38631;47.572;10.704;2022-12-31T07:19:25;92959.75;;;12.18;67.41
52735;BME280;38631;47.572;10.704;2022-12-31T07:21:54;92950.88;;;12.23;68.03
52735;BME280;38631;47.572;10.704;2022-12-31T07:24:22;92960.00;;;12.30;67.50
52735;BME280;38631;47.572;10.704;2022-12-31T07:29:42;92968.53;;;11.60;71.36
52735;BME280;38631;47.572;10.704;2022-12-31T07:40:04;92968.75;;;11.86;70.08
52735;BME280;38631;47.572;10.704;2022-12-31T07:42:41;92975.56;;;12.15;68.70
52735;BME280;38631;47.572;10.704;2022-12-31T07:45:18;92976.97;;;12.12;68.99
52735;BME280;38631;47.572;10.704;2022-12-31T07:47:45;92983.97;;;12.30;67.80
52735;BME280;38631;47.572;10.704;2022-12-31T07:50:15;92975.38;;;12.11;68.91
52735;BME280;38631;47.572;10.704;2022-12-31T07:52:41;92961.81;;;12.21;68.43
52735;BME280;38631;47.572;10.704;2022-12-31T07:55:06;92969.91;;;12.16;68.95
52735;BME280;38631;47.572;10.704;2022-12-31T07:57:47;92970.59;;;11.99;69.51
52735;BME280;38631;47.572;10.704;2022-12-31T08:00:16;92971.88;;;12.02;69.24
52735;BME280;38631;47.572;10.704;2022-12-31T08:03:09;92983.22;;;12.16;68.65
52735;BME280;38631;47.572;10.704;2022-12-31T08:08:14;92988.22;;;12.09;68.94
52735;BME280;38631;47.572;10.704;2022-12-31T08:10:59;92996.38;;;12.13;68.86
52735;BME280;38631;47.572;10.704;2022-12-31T08:13:28;92978.72;;;12.17;68.48
52735;BME280;38631;47.572;10.704;2022-12-31T08:15:54;92984.97;;;12.43;67.38
52735;BME280;38631;47.572;10.704;2022-12-31T08:18:20;92984.44;;;12.32;67.97
52735;BME280;38631;47.572;10.704;2022-12-31T08:26:46;92974.03;;;12.45;66.69
52735;BME280;38631;47.572;10.704;2022-12-31T08:29:31;92967.94;;;12.53;66.48
52735;BME280;38631;47.572;10.704;2022-12-31T08:37:40;92978.31;;;12.54;66.98
52735;BME280;38631;47.572;10.704;2022-12-31T08:40:32;92972.47;;;12.84;65.67
52735;BME280;38631;47.572;10.704;2022-12-31T08:45:49;92981.19;;;12.67;66.88
52735;BME280;38631;47.572;10.704;2022-12-31T08:48:26;92992.25;;;12.91;65.78
52735;BME280;38631;47.572;10.704;2022-12-31T08:50:53;92979.38;;;12.85;65.96
52735;BME280;38631;47.572;10.704;2022-12-31T08:53:19;92978.00;;;12.96;66.14
52735;BME280;38631;47.572;10.704;2022-12-31T08:55:46;92982.78;;;13.16;65.36
52735;BME280;38631;47.572;10.704;2022-12-31T08:58:28;92977.13;;;13.09;65.23
52735;BME280;38631;47.572;10.704;2022-12-31T09:00:59;92980.88;;;13.08;65.36
52735;BME280;38631;47.572;10.704;2022-12-31T09:06:28;92977.28;;;13.13;65.08
52735;BME280;38631;47.572;10.704;2022-12-31T09:14:43;92993.06;;;12.92;66.32
52735;BME280;38631;47.572;10.704;2022-12-31T09:17:22;92984.31;;;13.09;65.12
52735;BME280;38631;47.572;10.704;2022-12-31T09:19:50;93005.34;;;13.02;65.39
52735;BME280;38631;47.572;10.704;2022-12-31T09:22:16;92981.00;;;13.03;65.16
52735;BME280;38631;47.572;10.704;2022-12-31T09:24:42;92984.66;;;13.16;64.39
52735;BME280;38631;47.572;10.704;2022-12-31T09:27:35;92990.25;;;13.46;63.04
52735;BME280;38631;47.572;10.704;2022-12-31T09:30:07;92989.44;;;13.28;63.62
52735;BME280;38631;47.572;10.704;2022-12-31T09:37:54;92988.56;;;13.10;64.24
52735;BME280;38631;47.572;10.704;2022-12-31T09:57:05;92953.09;;;14.10;59.79
52735;BME280;38631;47.572;10.704;2022-12-31T09:59:51;92947.41;;;14.12;60.39
52735;BME280;38631;47.572;10.704;2022-12-31T10:10:29;92934.66;;;14.26;58.81
52735;BME280;38631;47.572;10.704;2022-12-31T10:13:15;92936.09;;;14.23;59.28
52735;BME280;38631;47.572;10.704;2022-12-31T10:21:41;92925.31;;;14.67;57.06
52735;BME280;38631;47.572;10.704;2022-12-31T10:30:16;92912.69;;;14.76;56.50
52735;BME280;38631;47.572;10.704;2022-12-31T10:35:26;92917.38;;;14.79;56.48
52735;BME280;38631;47.572;10.704;2022-12-31T10:46:29;92914.25;;;15.16;54.28
52735;BME280;38631;47.572;10.704;2022-12-31T10:52:02;92901.22;;;15.35;53.02
52735;BME280;38631;47.572;10.704;2022-12-31T11:00:21;92906.84;;;15.63;52.10
52735;BME280;38631;47.572;10.704;2022-12-31T11:19:47;92888.56;;;15.65;52.48
52735;BME280;38631;47.572;10.704;2022-12-31T11:28:03;92886.44;;;16.13;49.91
52735;BME280;38631;47.572;10.704;2022-12-31T11:30:40;92877.66;;;15.91;50.52
52735;BME280;38631;47.572;10.704;2022-12-31T11:36:08;92889.59;;;15.94;49.92
52735;BME280;38631;47.572;10.704;2022-12-31T11:38:52;92881.84;;;15.80;50.76
52735;BME280;38631;47.572;10.704;2022-12-31T11:41:45;92870.06;;;15.51;52.36
52735;BME280;38631;47.572;10.704;2022-12-31T11:58:15;92845.38;;;16.21;47.53
52735;BME280;38631;47.572;10.704;2022-12-31T12:01:09;92842.38;;;16.35;47.11
52735;BME280;38631;47.572;10.704;2022-12-31T12:03:36;92840.84;;;16.01;48.53
52735;BME280;38631;47.572;10.704;2022-12-31T12:06:10;92835.31;;;15.72;49.78
52735;BME280;38631;47.572;10.704;2022-12-31T12:08:36;92833.31;;;15.82;49.69
52735;BME280;38631;47.572;10.704;2022-12-31T12:11:05;92839.44;;;15.61;50.44
52735;BME280;38631;47.572;10.704;2022-12-31T12:13:32;92839.72;;;15.68;49.92
52735;BME280;38631;47.572;10.704;2022-12-31T12:15:59;92832.34;;;15.65;49.81
52735;BME280;38631;47.572;10.704;2022-12-31T12:18:33;92838.97;;;16.01;48.04
52735;BME280;38631;47.572;10.704;2022-12-31T12:21:08;92835.84;;;16.11;48.06
52735;BME280;38631;47.572;10.704;2022-12-31T12:23:33;92837.25;;;15.96;48.80
52735;BME280;38631;47.572;10.704;2022-12-31T12:26:00;92823.59;;;16.23;47.73
52735;BME280;38631;47.572;10.704;2022-12-31T12:28:28;92829.78;;;16.02;48.31
52735;BME280;38631;47.572;10.704;2022-12-31T12:30:58;92835.84;;;16.11;47.78
52735;BME280;38631;47.572;10.704;2022-12-31T12:33:23;92838.88;;;16.22;47.31
52735;BME280;38631;47.572;10.704;2022-12-31T12:35:49;92821.41;;;15.91;48.37
52735;BME280;38631;47.572;10.704;2022-12-31T12:38:22;92811.41;;;16.13;47.80
52735;BME280;38631;47.572;10.704;2022-12-31T12:41:21;92803.38;;;16.37;46.63
52735;BME280;38631;47.572;10.704;2022-12-31T12:44:00;92801.34;;;16.10;47.94
52735;BME280;38631;47.572;10.704;2022-12-31T12:46:30;92799.25;;;16.15;47.04
52735;BME280;38631;47.572;10.704;2022-12-31T12:48:57;92796.56;;;16.03;47.42
52735;BME280;38631;47.572;10.704;2022-12-31T12:57:05;92799.13;;;16.24;46.23
52735;BME280;38631;47.572;10.704;2022-12-31T13:03:00;92795.47;;;16.41;45.76
52735;BME280;38631;47.572;10.704;2022-12-31T13:05:47;92791.31;;;16.07;47.27
52735;BME280;38631;47.572;10.704;2022-12-31T13:08:23;92804.97;;;16.38;46.32
52735;BME280;38631;47.572;10.704;2022-12-31T13:13:31;92796.22;;;16.17;46.46
52735;BME280;38631;47.572;10.704;2022-12-31T13:16:23;92792.06;;;16.07;46.78
52735;BME280;38631;47.572;10.704;2022-12-31T13:21:39;92805.34;;;15.91;46.61
52735;BME280;38631;47.572;10.704;2022-12-31T13:24:21;92811.63;;;16.20;45.96
52735;BME280;38631;47.572;10.704;2022-12-31T13:29:17;92806.19;;;16.41;44.52
52735;BME280;38631;47.572;10.704;2022-12-31T13:31:43;92794.72;;;15.95;46.56
52735;BME280;38631;47.572;10.704;2022-12-31T13:34:16;92800.72;;;15.80;46.88
52735;BME280;38631;47.572;10.704;2022-12-31T13:36:46;92791.88;;;16.00;46.04
52735;BME280;38631;47.572;10.704;2022-12-31T13:39:21;92791.19;;;16.03;45.75
52735;BME280;38631;47.572;10.704;2022-12-31T13:41:53;92799.25;;;16.15;45.39
52735;BME280;38631;47.572;10.704;2022-12-31T13:44:29;92795.78;;;16.03;45.47
52735;BME280;38631;47.572;10.704;2022-12-31T13:47:23;92800.75;;;15.92;45.52
52735;BME280;38631;47.572;10.704;2022-12-31T13:49:55;92799.22;;;16.03;44.82
52735;BME280;38631;47.572;10.704;2022-12-31T13:55:09;92795.75;;;15.90;45.16
52735;BME280;38631;47.572;10.704;2022-12-31T14:00:38;92797.44;;;16.07;43.94
52735;BME280;38631;47.572;10.704;2022-12-31T14:03:31;92794.13;;;16.10;43.58
52735;BME280;38631;47.572;10.704;2022-12-31T14:06:35;92794.53;;;16.12;43.37
52735;BME280;38631;47.572;10.704;2022-12-31T14:09:04;92802.47;;;16.09;43.78
52735;BME280;38631;47.572;10.704;2022-12-31T14:19:22;92796.47;;;16.24;42.42
52735;BME280;38631;47.572;10.704;2022-12-31T14:22:09;92798.66;;;15.97;43.86
52735;BME280;38631;47.572;10.704;2022-12-31T14:24:43;92797.53;;;15.98;44.33
52735;BME280;38631;47.572;10.704;2022-12-31T14:27:21;92800.94;;;15.74;44.49
52735;BME280;38631;47.572;10.704;2022-12-31T14:29:58;92799.44;;;15.98;43.49
52735;BME280;38631;47.572;10.704;2022-12-31T14:38:20;92799.59;;;16.26;41.88
52735;BME280;38631;47.572;10.704;2022-12-31T14:40:55;92808.59;;;16.09;42.33
52735;BME280;38631;47.572;10.704;2022-12-31T14:46:27;92809.34;;;15.85;43.51
52735;BME280;38631;47.572;10.704;2022-12-31T14:49:09;92807.28;;;16.15;42.27
52735;BME280;38631;47.572;10.704;2022-12-31T14:51:38;92810.41;;;16.05;42.39
52735;BME280;38631;47.572;10.704;2022-12-31T14:54:03;92809.91;;;15.91;42.86
52735;BME280;38631;47.572;10.704;2022-12-31T14:59:22;92808.94;;;15.95;42.73
52735;BME280;38631;47.572;10.704;2022-12-31T15:01:48;92809.13;;;15.90;42.77
52735;BME280;38631;47.572;10.704;2022-12-31T15:04:13;92804.91;;;16.02;42.05
52735;BME280;38631;47.572;10.704;2022-12-31T15:06:57;92811.22;;;15.72;43.35
52735;BME280;38631;47.572;10.704;2022-12-31T15:12:33;92806.09;;;15.92;41.80
52735;BME280;38631;47.572;10.704;2022-12-31T15:19:02;92810.38;;;15.93;41.72
52735;BME280;38631;47.572;10.704;2022-12-31T15:23:39;92819.63;;;15.41;43.28
52735;BME280;38631;47.572;10.704;2022-12-31T15:26:24;92814.38;;;15.66;42.20
52735;BME280;38631;47.572;10.704;2022-12-31T15:29:05;92826.69;;;15.46;42.95
52735;BME280;38631;47.572;10.704;2022-12-31T15:31:33;92820.28;;;15.38;42.91
52735;BME280;38631;47.572;10.704;2022-12-31T15:34:29;92821.31;;;15.46;42.60
52735;BME280;38631;47.572;10.704;2022-12-31T15:36:59;92826.16;;;15.52;42.09
52735;BME280;38631;47.572;10.704;2022-12-31T15:39:37;92820.81;;;15.52;42.19
52735;BME280;38631;47.572;10.704;2022-12-31T15:42:20;92820.00;;;15.52;42.22
52735;BME280;38631;47.572;10.704;2022-12-31T15:44:59;92825.50;;;15.34;42.76
52735;BME280;38631;47.572;10.704;2022-12-31T15:47:42;92826.69;;;15.46;41.94
52735;BME280;38631;47.572;10.704;2022-12-31T15:50:19;92830.44;;;15.87;40.06
52735;BME280;38631;47.572;10.704;2022-12-31T15:52:51;92835.63;;;14.40;50.52
52735;BME280;38631;47.572;10.704;2022-12-31T15:55:36;92846.97;;;13.46;55.37
52735;BME280;38631;47.572;10.704;2022-12-31T15:58:17;92845.84;;;13.12;57.50
52735;BME280;38631;47.572;10.704;2022-12-31T16:03:21;92854.56;;;12.78;58.56
52735;BME280;38631;47.572;10.704;2022-12-31T16:05:47;92852.19;;;12.68;59.37
52735;BME280;38631;47.572;10.704;2022-12-31T16:08:18;92860.47;;;12.58;59.78
52735;BME280;38631;47.572;10.704;2022-12-31T16:10:45;92852.97;;;12.68;59.91
52735;BME280;38631;47.572;10.704;2022-12-31T16:13:19;92857.31;;;12.56;60.45
52735;BME280;38631;47.572;10.704;2022-12-31T16:15:48;92858.78;;;12.22;61.77
52735;BME280;38631;47.572;10.704;2022-12-31T16:18:16;92864.25;;;12.17;62.04
52735;BME280;38631;47.572;10.704;2022-12-31T16:20:43;92855.72;;;12.06;62.55
52735;BME280;38631;47.572;10.704;2022-12-31T16:23:30;92862.81;;;11.88;63.37
52735;BME280;38631;47.572;10.704;2022-12-31T16:25:59;92870.91;;;11.83;63.78
52735;BME280;38631;47.572;10.704;2022-12-31T16:28:31;92878.72;;;11.79;64.18
52735;BME280;38631;47.572;10.704;2022-12-31T16:31:06;92869.97;;;11.56;65.36
52735;BME280;38631;47.572;10.704;2022-12-31T16:33:31;92871.22;;;11.59;65.09
52735;BME280;38631;47.572;10.704;2022-12-31T16:35:59;92875.69;;;11.50;65.57
52735;BME280;38631;47.572;10.704;2022-12-31T16:38:35;92875.13;;;11.16;67.21
52735;BME280;38631;47.572;10.704;2022-12-31T16:43:29;92879.50;;;11.21;67.14
52735;BME280;38631;47.572;10.704;2022-12-31T16:46:08;92889.13;;;11.31;66.17
52735;BME280;38631;47.572;10.704;2022-12-31T16:48:35;92883.63;;;11.27;66.60
52735;BME280;38631;47.572;10.704;2022-12-31T16:51:02;92884.63;;;11.31;66.66